sensor_id;sensor_type;location;lat;lon;timestamp;P1;durP1;ratioP1;P2;durP2;ratioP2
20896;SDS011;10608;42.600;23.398;2023-05-31T00:02:12;43.30;;;41.43;;
20896;SDS011;10608;42.600;23.398;2023-05-31T00:04:37;30.70;;;29.30;;
20896;SDS011;10608;42.600;23.398;2023-05-31T00:07:04;54.07;;;51.67;;
20896;SDS011;10608;42.600;23.398;2023-05-31T00:09:29;51.53;;;49.33;;
20896;SDS011;10608;42.600;23.398;2023-05-31T00:11:54;48.87;;;46.63;;
20896;SDS011;10608;42.600;23.398;2023-05-31T00:14:20;50.43;;;48.27;;
20896;SDS011;10608;42.600;23.398;2023-05-31T00:16:45;68.87;;;65.93;;
20896;SDS011;10608;42.600;23.398;2023-05-31T00:19:10;69.70;;;66.77;;
20896;SDS011;10608;42.600;23.398;2023-05-31T00:21:35;80.07;;;76.37;;
20896;SDS011;10608;42.600;23.398;2023-05-31T00:24:01;78.90;;;75.30;;
20896;SDS011;10608;42.600;23.398;2023-05-31T00:26:26;72.47;;;69.37;;
20896;SDS011;10608;42.600;23.398;2023-05-31T00:28:51;59.03;;;56.50;;
20896;SDS011;10608;42.600;23.398;2023-05-31T00:31:16;68.20;;;65.30;;
20896;SDS011;10608;42.600;23.398;2023-05-31T00:33:44;65.90;;;63.07;;
20896;SDS011;10608;42.600;23.398;2023-05-31T00:36:10;69.87;;;66.87;;
20896;SDS011;10608;42.600;23.398;2023-05-31T00:38:35;78.57;;;75.17;;
20896;SDS011;10608;42.600;23.398;2023-05-31T00:41:00;74.50;;;71.30;;
20896;SDS011;10608;42.600;23.398;2023-05-31T00:43:25;85.00;;;81.23;;
20896;SDS011;10608;42.600;23.398;2023-05-31T00:45:51;99.10;;;94.73;;
20896;SDS011;10608;42.600;23.398;2023-05-31T00:48:16;98.60;;;94.20;;
20896;SDS011;10608;42.600;23.398;2023-05-31T00:50:42;84.33;;;80.60;;
20896;SDS011;10608;42.600;23.398;2023-05-31T00:53:08;63.40;;;60.63;;
20896;SDS011;10608;42.600;23.398;2023-05-31T00:55:33;54.73;;;52.40;;
20896;SDS011;10608;42.600;23.398;2023-05-31T00:57:59;56.77;;;54.23;;
20896;SDS011;10608;42.600;23.398;2023-05-31T01:00:25;82.67;;;79.23;;
20896;SDS011;10608;42.600;23.398;2023-05-31T01:02:51;88.90;;;85.23;;
20896;SDS011;10608;42.600;23.398;2023-05-31T01:05:17;81.87;;;78.23;;
20896;SDS011;10608;42.600;23.398;2023-05-31T01:07:42;65.23;;;62.37;;
20896;SDS011;10608;42.600;23.398;2023-05-31T01:10:08;59.67;;;56.97;;
20896;SDS011;10608;42.600;23.398;2023-05-31T01:15:24;42.77;;;40.97;;
20896;SDS011;10608;42.600;23.398;2023-05-31T01:20:32;43.17;;;41.30;;
20896;SDS011;10608;42.600;23.398;2023-05-31T01:28:27;67.50;;;64.40;;
20896;SDS011;10608;42.600;23.398;2023-05-31T01:30:56;75.97;;;72.63;;
20896;SDS011;10608;42.600;23.398;2023-05-31T01:33:22;57.43;;;54.77;;
20896;SDS011;10608;42.600;23.398;2023-05-31T01:35:47;60.73;;;57.83;;
20896;SDS011;10608;42.600;23.398;2023-05-31T01:38:13;46.27;;;44.13;;
20896;SDS011;10608;42.600;23.398;2023-05-31T01:40:38;46.90;;;44.80;;
20896;SDS011;10608;42.600;23.398;2023-05-31T01:43:04;51.20;;;48.90;;
20896;SDS011;10608;42.600;23.398;2023-05-31T01:45:30;42.70;;;40.87;;
20896;SDS011;10608;42.600;23.398;2023-05-31T01:48:02;63.47;;;60.63;;
20896;SDS011;10608;42.600;23.398;2023-05-31T01:50:28;65.47;;;62.37;;
20896;SDS011;10608;42.600;23.398;2023-05-31T01:52:53;81.63;;;78.13;;
20896;SDS011;10608;42.600;23.398;2023-05-31T01:55:19;67.80;;;64.70;;
20896;SDS011;10608;42.600;23.398;2023-05-31T01:57:44;87.63;;;83.87;;
20896;SDS011;10608;42.600;23.398;2023-05-31T02:00:11;64.20;;;61.33;;
20896;SDS011;10608;42.600;23.398;2023-05-31T02:02:40;79.20;;;74.80;;
20896;SDS011;10608;42.600;23.398;2023-05-31T02:05:06;92.77;;;88.60;;
20896;SDS011;10608;42.600;23.398;2023-05-31T02:07:38;89.40;;;85.37;;
20896;SDS011;10608;42.600;23.398;2023-05-31T02:10:04;92.90;;;88.87;;
20896;SDS011;10608;42.600;23.398;2023-05-31T02:12:30;85.57;;;81.57;;
20896;SDS011;10608;42.600;23.398;2023-05-31T02:14:55;77.23;;;73.83;;
20896;SDS011;10608;42.600;23.398;2023-05-31T02:17:20;75.27;;;71.90;;
20896;SDS011;10608;42.600;23.398;2023-05-31T02:19:50;68.77;;;65.77;;
20896;SDS011;10608;42.600;23.398;2023-05-31T02:22:15;63.47;;;60.57;;
20896;SDS011;10608;42.600;23.398;2023-05-31T02:24:40;66.53;;;63.60;;
20896;SDS011;10608;42.600;23.398;2023-05-31T02:27:05;57.47;;;54.90;;
20896;SDS011;10608;42.600;23.398;2023-05-31T02:29:31;60.50;;;57.80;;
20896;SDS011;10608;42.600;23.398;2023-05-31T02:31:56;78.90;;;75.50;;
20896;SDS011;10608;42.600;23.398;2023-05-31T02:34:21;64.27;;;61.47;;
20896;SDS011;10608;42.600;23.398;2023-05-31T02:36:46;69.37;;;66.23;;
20896;SDS011;10608;42.600;23.398;2023-05-31T02:39:12;58.40;;;55.93;;
20896;SDS011;10608;42.600;23.398;2023-05-31T02:41:37;64.73;;;61.83;;
20896;SDS011;10608;42.600;23.398;2023-05-31T02:44:02;82.00;;;78.27;;
20896;SDS011;10608;42.600;23.398;2023-05-31T02:46:27;79.20;;;75.63;;
20896;SDS011;10608;42.600;23.398;2023-05-31T02:48:53;78.03;;;74.67;;
20896;SDS011;10608;42.600;23.398;2023-05-31T02:51:18;98.23;;;93.67;;
20896;SDS011;10608;42.600;23.398;2023-05-31T02:53:43;100.03;;;95.47;;
20896;SDS011;10608;42.600;23.398;2023-05-31T02:56:08;103.47;;;98.97;;
20896;SDS011;10608;42.600;23.398;2023-05-31T02:58:34;116.57;;;111.67;;
20896;SDS011;10608;42.600;23.398;2023-05-31T03:00:59;107.97;;;103.20;;
20896;SDS011;10608;42.600;23.398;2023-05-31T03:03:25;91.80;;;87.70;;
20896;SDS011;10608;42.600;23.398;2023-05-31T03:05:50;84.97;;;81.27;;
20896;SDS011;10608;42.600;23.398;2023-05-31T03:08:15;88.97;;;85.10;;
20896;SDS011;10608;42.600;23.398;2023-05-31T03:10:40;80.47;;;76.97;;
20896;SDS011;10608;42.600;23.398;2023-05-31T03:13:06;76.30;;;72.57;;
20896;SDS011;10608;42.600;23.398;2023-05-31T03:15:31;70.03;;;66.93;;
20896;SDS011;10608;42.600;23.398;2023-05-31T03:17:56;66.20;;;63.40;;
20896;SDS011;10608;42.600;23.398;2023-05-31T03:20:21;69.40;;;66.47;;
20896;SDS011;10608;42.600;23.398;2023-05-31T03:22:47;85.00;;;81.40;;
20896;SDS011;10608;42.600;23.398;2023-05-31T03:25:12;66.97;;;64.07;;
20896;SDS011;10608;42.600;23.398;2023-05-31T03:27:37;74.93;;;71.70;;
20896;SDS011;10608;42.600;23.398;2023-05-31T03:30:03;76.97;;;73.47;;
20896;SDS011;10608;42.600;23.398;2023-05-31T03:32:29;86.37;;;82.57;;
20896;SDS011;10608;42.600;23.398;2023-05-31T03:34:54;99.10;;;94.77;;
20896;SDS011;10608;42.600;23.398;2023-05-31T03:37:19;93.43;;;89.33;;
20896;SDS011;10608;42.600;23.398;2023-05-31T03:39:44;87.57;;;83.83;;
20896;SDS011;10608;42.600;23.398;2023-05-31T03:42:10;87.53;;;83.83;;
20896;SDS011;10608;42.600;23.398;2023-05-31T03:44:35;77.93;;;74.60;;
20896;SDS011;10608;42.600;23.398;2023-05-31T03:47:00;75.37;;;72.13;;
20896;SDS011;10608;42.600;23.398;2023-05-31T03:49:25;89.07;;;85.17;;
20896;SDS011;10608;42.600;23.398;2023-05-31T03:51:51;112.57;;;107.70;;
20896;SDS011;10608;42.600;23.398;2023-05-31T03:54:16;114.37;;;109.43;;
20896;SDS011;10608;42.600;23.398;2023-05-31T03:56:41;113.33;;;108.33;;
20896;SDS011;10608;42.600;23.398;2023-05-31T03:59:07;112.13;;;107.30;;
20896;SDS011;10608;42.600;23.398;2023-05-31T04:01:33;116.27;;;111.20;;
20896;SDS011;10608;42.600;23.398;2023-05-31T04:03:58;112.10;;;107.13;;
20896;SDS011;10608;42.600;23.398;2023-05-31T04:06:23;115.37;;;110.27;;
20896;SDS011;10608;42.600;23.398;2023-05-31T04:08:49;118.57;;;113.43;;
20896;SDS011;10608;42.600;23.398;2023-05-31T04:11:14;111.13;;;106.23;;
20896;SDS011;10608;42.600;23.398;2023-05-31T04:13:39;100.60;;;96.10;;
20896;SDS011;10608;42.600;23.398;2023-05-31T04:16:05;102.67;;;98.07;;
20896;SDS011;10608;42.600;23.398;2023-05-31T04:33:15;51.73;;;49.50;;
20896;SDS011;10608;42.600;23.398;2023-05-31T04:35:42;36.67;;;35.07;;
20896;SDS011;10608;42.600;23.398;2023-05-31T04:38:08;46.23;;;44.13;;
20896;SDS011;10608;42.600;23.398;2023-05-31T04:40:34;42.50;;;40.60;;
20896;SDS011;10608;42.600;23.398;2023-05-31T04:42:59;39.30;;;37.50;;
20896;SDS011;10608;42.600;23.398;2023-05-31T04:45:25;35.30;;;33.80;;
20896;SDS011;10608;42.600;23.398;2023-05-31T04:47:52;37.70;;;36.10;;
20896;SDS011;10608;42.600;23.398;2023-05-31T04:50:17;48.50;;;46.37;;
20896;SDS011;10608;42.600;23.398;2023-05-31T04:52:43;83.83;;;80.33;;
20896;SDS011;10608;42.600;23.398;2023-05-31T04:55:09;86.30;;;82.70;;
20896;SDS011;10608;42.600;23.398;2023-05-31T04:57:34;47.33;;;45.33;;
20896;SDS011;10608;42.600;23.398;2023-05-31T05:00:00;48.17;;;46.07;;
20896;SDS011;10608;42.600;23.398;2023-05-31T05:02:25;85.93;;;82.20;;
20896;SDS011;10608;42.600;23.398;2023-05-31T05:04:52;73.13;;;69.93;;
20896;SDS011;10608;42.600;23.398;2023-05-31T05:07:17;47.73;;;45.63;;
20896;SDS011;10608;42.600;23.398;2023-05-31T05:09:42;35.07;;;33.50;;
20896;SDS011;10608;42.600;23.398;2023-05-31T05:12:08;27.63;;;26.33;;
20896;SDS011;10608;42.600;23.398;2023-05-31T05:14:34;38.27;;;36.57;;
20896;SDS011;10608;42.600;23.398;2023-05-31T05:16:59;50.40;;;48.07;;
20896;SDS011;10608;42.600;23.398;2023-05-31T05:19:24;32.53;;;31.03;;
20896;SDS011;10608;42.600;23.398;2023-05-31T05:21:49;20.17;;;19.27;;
20896;SDS011;10608;42.600;23.398;2023-05-31T05:24:15;19.93;;;19.03;;
20896;SDS011;10608;42.600;23.398;2023-05-31T05:26:40;22.23;;;21.23;;
20896;SDS011;10608;42.600;23.398;2023-05-31T05:29:06;24.77;;;23.67;;
20896;SDS011;10608;42.600;23.398;2023-05-31T05:31:31;27.33;;;26.17;;
20896;SDS011;10608;42.600;23.398;2023-05-31T05:33:56;25.63;;;24.57;;
20896;SDS011;10608;42.600;23.398;2023-05-31T05:36:21;34.20;;;32.70;;
20896;SDS011;10608;42.600;23.398;2023-05-31T05:38:47;38.30;;;36.43;;
20896;SDS011;10608;42.600;23.398;2023-05-31T05:41:12;39.07;;;37.37;;
20896;SDS011;10608;42.600;23.398;2023-05-31T05:43:38;29.70;;;28.47;;
20896;SDS011;10608;42.600;23.398;2023-05-31T05:46:04;28.70;;;27.37;;
20896;SDS011;10608;42.600;23.398;2023-05-31T05:48:29;26.43;;;25.13;;
20896;SDS011;10608;42.600;23.398;2023-05-31T05:50:54;27.37;;;26.07;;
20896;SDS011;10608;42.600;23.398;2023-05-31T05:53:20;25.03;;;23.97;;
20896;SDS011;10608;42.600;23.398;2023-05-31T05:55:49;26.47;;;25.27;;
20896;SDS011;10608;42.600;23.398;2023-05-31T05:58:15;31.70;;;30.30;;
20896;SDS011;10608;42.600;23.398;2023-05-31T06:00:41;46.70;;;44.67;;
20896;SDS011;10608;42.600;23.398;2023-05-31T06:03:07;31.43;;;30.03;;
20896;SDS011;10608;42.600;23.398;2023-05-31T06:05:33;35.70;;;34.07;;
20896;SDS011;10608;42.600;23.398;2023-05-31T06:07:58;30.13;;;28.80;;
20896;SDS011;10608;42.600;23.398;2023-05-31T06:10:23;37.60;;;35.83;;
20896;SDS011;10608;42.600;23.398;2023-05-31T06:12:49;33.63;;;32.20;;
20896;SDS011;10608;42.600;23.398;2023-05-31T06:15:15;31.20;;;29.87;;
20896;SDS011;10608;42.600;23.398;2023-05-31T06:17:40;32.23;;;30.73;;
20896;SDS011;10608;42.600;23.398;2023-05-31T06:20:06;41.67;;;39.87;;
20896;SDS011;10608;42.600;23.398;2023-05-31T06:22:32;79.13;;;75.80;;
20896;SDS011;10608;42.600;23.398;2023-05-31T06:24:57;83.87;;;80.27;;
20896;SDS011;10608;42.600;23.398;2023-05-31T06:27:23;38.67;;;36.77;;
20896;SDS011;10608;42.600;23.398;2023-05-31T06:29:48;27.10;;;25.80;;
20896;SDS011;10608;42.600;23.398;2023-05-31T06:32:19;29.83;;;28.47;;
20896;SDS011;10608;42.600;23.398;2023-05-31T06:34:45;38.33;;;36.60;;
20896;SDS011;10608;42.600;23.398;2023-05-31T06:37:10;33.07;;;31.67;;
20896;SDS011;10608;42.600;23.398;2023-05-31T06:39:36;48.27;;;46.07;;
20896;SDS011;10608;42.600;23.398;2023-05-31T06:42:01;72.47;;;69.43;;
20896;SDS011;10608;42.600;23.398;2023-05-31T06:44:26;71.37;;;68.27;;
20896;SDS011;10608;42.600;23.398;2023-05-31T06:46:52;44.63;;;42.77;;
20896;SDS011;10608;42.600;23.398;2023-05-31T06:49:17;22.10;;;21.10;;
20896;SDS011;10608;42.600;23.398;2023-05-31T06:51:42;33.27;;;31.83;;
20896;SDS011;10608;42.600;23.398;2023-05-31T06:54:07;36.33;;;34.67;;
20896;SDS011;10608;42.600;23.398;2023-05-31T06:56:33;21.30;;;20.37;;
20896;SDS011;10608;42.600;23.398;2023-05-31T06:58:58;43.67;;;41.73;;
20896;SDS011;10608;42.600;23.398;2023-05-31T07:01:24;15.80;;;15.03;;
20896;SDS011;10608;42.600;23.398;2023-05-31T07:03:50;17.87;;;17.10;;
20896;SDS011;10608;42.600;23.398;2023-05-31T07:06:15;26.00;;;24.70;;
20896;SDS011;10608;42.600;23.398;2023-05-31T07:08:40;37.50;;;35.93;;
20896;SDS011;10608;42.600;23.398;2023-05-31T07:11:06;71.20;;;68.10;;
20896;SDS011;10608;42.600;23.398;2023-05-31T07:13:31;45.90;;;43.97;;
20896;SDS011;10608;42.600;23.398;2023-05-31T07:15:56;50.57;;;48.37;;
20896;SDS011;10608;42.600;23.398;2023-05-31T07:18:22;33.30;;;31.90;;
20896;SDS011;10608;42.600;23.398;2023-05-31T07:20:47;36.33;;;34.73;;
20896;SDS011;10608;42.600;23.398;2023-05-31T07:23:12;43.67;;;41.80;;
20896;SDS011;10608;42.600;23.398;2023-05-31T07:25:37;47.40;;;45.40;;
20896;SDS011;10608;42.600;23.398;2023-05-31T07:28:03;31.67;;;30.20;;
20896;SDS011;10608;42.600;23.398;2023-05-31T07:30:28;37.90;;;36.13;;
20896;SDS011;10608;42.600;23.398;2023-05-31T07:32:53;31.97;;;30.50;;
20896;SDS011;10608;42.600;23.398;2023-05-31T07:35:19;37.37;;;35.73;;
20896;SDS011;10608;42.600;23.398;2023-05-31T07:37:44;34.03;;;32.33;;
20896;SDS011;10608;42.600;23.398;2023-05-31T07:40:09;33.23;;;31.73;;
20896;SDS011;10608;42.600;23.398;2023-05-31T07:42:35;30.47;;;29.07;;
20896;SDS011;10608;42.600;23.398;2023-05-31T07:45:00;25.87;;;24.77;;
20896;SDS011;10608;42.600;23.398;2023-05-31T07:47:25;34.53;;;32.97;;
20896;SDS011;10608;42.600;23.398;2023-05-31T07:49:51;40.20;;;38.47;;
20896;SDS011;10608;42.600;23.398;2023-05-31T07:52:16;54.60;;;52.17;;
20896;SDS011;10608;42.600;23.398;2023-05-31T07:54:46;33.60;;;32.13;;
20896;SDS011;10608;42.600;23.398;2023-05-31T07:57:12;16.60;;;15.80;;
20896;SDS011;10608;42.600;23.398;2023-05-31T07:59:37;28.57;;;27.27;;
20896;SDS011;10608;42.600;23.398;2023-05-31T08:02:02;32.17;;;30.67;;
20896;SDS011;10608;42.600;23.398;2023-05-31T08:04:29;43.30;;;41.43;;
20896;SDS011;10608;42.600;23.398;2023-05-31T08:06:54;60.87;;;58.17;;
20896;SDS011;10608;42.600;23.398;2023-05-31T08:09:19;54.10;;;51.63;;
20896;SDS011;10608;42.600;23.398;2023-05-31T08:11:45;19.60;;;18.70;;
20896;SDS011;10608;42.600;23.398;2023-05-31T08:14:10;40.60;;;38.77;;
20896;SDS011;10608;42.600;23.398;2023-05-31T08:16:35;44.23;;;42.13;;
20896;SDS011;10608;42.600;23.398;2023-05-31T08:19:01;62.97;;;60.27;;
20896;SDS011;10608;42.600;23.398;2023-05-31T08:21:27;53.70;;;51.30;;
20896;SDS011;10608;42.600;23.398;2023-05-31T08:23:53;35.30;;;33.57;;
20896;SDS011;10608;42.600;23.398;2023-05-31T08:26:18;16.33;;;15.57;;
20896;SDS011;10608;42.600;23.398;2023-05-31T08:28:43;16.83;;;16.10;;
20896;SDS011;10608;42.600;23.398;2023-05-31T08:31:09;18.13;;;17.20;;
20896;SDS011;10608;42.600;23.398;2023-05-31T08:33:34;15.93;;;15.13;;
20896;SDS011;10608;42.600;23.398;2023-05-31T08:36:00;44.33;;;42.23;;
20896;SDS011;10608;42.600;23.398;2023-05-31T08:38:29;40.17;;;38.43;;
20896;SDS011;10608;42.600;23.398;2023-05-31T08:40:56;46.97;;;44.93;;
20896;SDS011;10608;42.600;23.398;2023-05-31T08:43:22;20.93;;;19.97;;
20896;SDS011;10608;42.600;23.398;2023-05-31T08:45:50;47.53;;;45.47;;
20896;SDS011;10608;42.600;23.398;2023-05-31T08:50:44;40.90;;;39.13;;
20896;SDS011;10608;42.600;23.398;2023-05-31T08:53:10;33.43;;;31.83;;
20896;SDS011;10608;42.600;23.398;2023-05-31T08:55:35;28.47;;;26.97;;
20896;SDS011;10608;42.600;23.398;2023-05-31T08:58:01;26.67;;;25.53;;
20896;SDS011;10608;42.600;23.398;2023-05-31T09:00:27;24.67;;;23.47;;
20896;SDS011;10608;42.600;23.398;2023-05-31T09:02:53;26.37;;;25.17;;
20896;SDS011;10608;42.600;23.398;2023-05-31T09:05:18;28.83;;;27.53;;
20896;SDS011;10608;42.600;23.398;2023-05-31T09:07:44;16.80;;;16.00;;
20896;SDS011;10608;42.600;23.398;2023-05-31T09:10:09;25.67;;;24.47;;
20896;SDS011;10608;42.600;23.398;2023-05-31T09:12:36;44.83;;;42.83;;
20896;SDS011;10608;42.600;23.398;2023-05-31T09:15:02;36.00;;;34.47;;
20896;SDS011;10608;42.600;23.398;2023-05-31T09:17:28;65.60;;;62.73;;
20896;SDS011;10608;42.600;23.398;2023-05-31T09:19:54;37.47;;;35.77;;
20896;SDS011;10608;42.600;23.398;2023-05-31T09:22:23;39.10;;;37.20;;
20896;SDS011;10608;42.600;23.398;2023-05-31T09:24:49;24.50;;;23.47;;
20896;SDS011;10608;42.600;23.398;2023-05-31T09:27:15;27.33;;;26.13;;
20896;SDS011;10608;42.600;23.398;2023-05-31T09:29:42;36.33;;;34.73;;
20896;SDS011;10608;42.600;23.398;2023-05-31T09:32:08;58.73;;;56.23;;
20896;SDS011;10608;42.600;23.398;2023-05-31T09:34:34;41.83;;;40.03;;
20896;SDS011;10608;42.600;23.398;2023-05-31T09:36:59;37.47;;;35.77;;
20896;SDS011;10608;42.600;23.398;2023-05-31T09:39:25;30.40;;;29.10;;
20896;SDS011;10608;42.600;23.398;2023-05-31T09:41:50;40.53;;;38.70;;
20896;SDS011;10608;42.600;23.398;2023-05-31T09:44:16;27.23;;;26.03;;
20896;SDS011;10608;42.600;23.398;2023-05-31T09:46:41;53.77;;;51.50;;
20896;SDS011;10608;42.600;23.398;2023-05-31T09:49:09;17.20;;;16.30;;
20896;SDS011;10608;42.600;23.398;2023-05-31T09:51:35;19.93;;;18.90;;
20896;SDS011;10608;42.600;23.398;2023-05-31T09:54:13;33.53;;;32.00;;
20896;SDS011;10608;42.600;23.398;2023-05-31T09:56:39;23.03;;;21.93;;
20896;SDS011;10608;42.600;23.398;2023-05-31T09:59:05;27.33;;;25.90;;
20896;SDS011;10608;42.600;23.398;2023-05-31T10:01:34;36.50;;;34.90;;
20896;SDS011;10608;42.600;23.398;2023-05-31T10:04:00;36.10;;;34.43;;
20896;SDS011;10608;42.600;23.398;2023-05-31T10:06:25;21.93;;;20.97;;
20896;SDS011;10608;42.600;23.398;2023-05-31T10:08:51;34.40;;;32.90;;
20896;SDS011;10608;42.600;23.398;2023-05-31T10:11:17;33.50;;;32.00;;
20896;SDS011;10608;42.600;23.398;2023-05-31T10:13:44;32.00;;;30.60;;
20896;SDS011;10608;42.600;23.398;2023-05-31T10:16:10;34.17;;;32.70;;
20896;SDS011;10608;42.600;23.398;2023-05-31T10:18:36;35.37;;;33.87;;
20896;SDS011;10608;42.600;23.398;2023-05-31T10:21:05;42.97;;;41.07;;
20896;SDS011;10608;42.600;23.398;2023-05-31T10:23:33;61.67;;;59.03;;
20896;SDS011;10608;42.600;23.398;2023-05-31T10:28:29;23.23;;;22.23;;
20896;SDS011;10608;42.600;23.398;2023-05-31T10:30:56;23.07;;;21.97;;
20896;SDS011;10608;42.600;23.398;2023-05-31T10:33:22;19.97;;;19.07;;
20896;SDS011;10608;42.600;23.398;2023-05-31T10:35:47;22.20;;;21.27;;
20896;SDS011;10608;42.600;23.398;2023-05-31T10:38:13;30.03;;;28.73;;
20896;SDS011;10608;42.600;23.398;2023-05-31T10:40:41;26.03;;;24.90;;
20896;SDS011;10608;42.600;23.398;2023-05-31T10:43:14;39.63;;;37.93;;
20896;SDS011;10608;42.600;23.398;2023-05-31T10:45:43;26.43;;;25.30;;
20896;SDS011;10608;42.600;23.398;2023-05-31T10:51:05;40.13;;;38.47;;
20896;SDS011;10608;42.600;23.398;2023-05-31T10:53:35;31.57;;;30.23;;
20896;SDS011;10608;42.600;23.398;2023-05-31T10:56:01;22.80;;;21.77;;
20896;SDS011;10608;42.600;23.398;2023-05-31T10:58:34;28.87;;;27.67;;
20896;SDS011;10608;42.600;23.398;2023-05-31T11:01:02;24.23;;;23.17;;
20896;SDS011;10608;42.600;23.398;2023-05-31T11:03:28;39.33;;;37.73;;
20896;SDS011;10608;42.600;23.398;2023-05-31T11:06:00;41.07;;;39.37;;
20896;SDS011;10608;42.600;23.398;2023-05-31T11:08:26;48.73;;;46.70;;
20896;SDS011;10608;42.600;23.398;2023-05-31T11:10:51;42.80;;;40.97;;
20896;SDS011;10608;42.600;23.398;2023-05-31T11:13:17;39.97;;;38.30;;
20896;SDS011;10608;42.600;23.398;2023-05-31T11:15:43;28.23;;;27.00;;
20896;SDS011;10608;42.600;23.398;2023-05-31T11:18:09;45.13;;;43.17;;
20896;SDS011;10608;42.600;23.398;2023-05-31T11:20:34;47.10;;;45.10;;
20896;SDS011;10608;42.600;23.398;2023-05-31T11:25:43;54.97;;;52.57;;
20896;SDS011;10608;42.600;23.398;2023-05-31T11:28:09;40.93;;;39.17;;
20896;SDS011;10608;42.600;23.398;2023-05-31T11:30:36;20.03;;;19.17;;
20896;SDS011;10608;42.600;23.398;2023-05-31T11:33:01;11.63;;;11.03;;
20896;SDS011;10608;42.600;23.398;2023-05-31T11:35:30;14.50;;;13.80;;
20896;SDS011;10608;42.600;23.398;2023-05-31T11:37:59;22.10;;;21.17;;
20896;SDS011;10608;42.600;23.398;2023-05-31T11:40:26;26.53;;;24.70;;
20896;SDS011;10608;42.600;23.398;2023-05-31T11:42:51;21.23;;;20.30;;
20896;SDS011;10608;42.600;23.398;2023-05-31T11:45:18;12.67;;;12.17;;
20896;SDS011;10608;42.600;23.398;2023-05-31T11:50:13;27.50;;;26.30;;
20896;SDS011;10608;42.600;23.398;2023-05-31T11:52:40;14.50;;;13.80;;
20896;SDS011;10608;42.600;23.398;2023-05-31T11:55:05;17.40;;;16.70;;
20896;SDS011;10608;42.600;23.398;2023-05-31T11:57:31;14.33;;;13.73;;
20896;SDS011;10608;42.600;23.398;2023-05-31T12:00:04;17.03;;;16.33;;
20896;SDS011;10608;42.600;23.398;2023-05-31T12:02:34;40.07;;;38.37;;
20896;SDS011;10608;42.600;23.398;2023-05-31T12:04:59;65.20;;;62.47;;
20896;SDS011;10608;42.600;23.398;2023-05-31T12:07:24;62.03;;;59.43;;
20896;SDS011;10608;42.600;23.398;2023-05-31T12:09:50;60.40;;;57.80;;
20896;SDS011;10608;42.600;23.398;2023-05-31T12:12:15;75.90;;;72.80;;
20896;SDS011;10608;42.600;23.398;2023-05-31T12:14:50;52.67;;;50.37;;
20896;SDS011;10608;42.600;23.398;2023-05-31T12:17:16;43.60;;;41.73;;
20896;SDS011;10608;42.600;23.398;2023-05-31T12:19:42;86.40;;;82.90;;
20896;SDS011;10608;42.600;23.398;2023-05-31T12:22:07;129.10;;;123.80;;
20896;SDS011;10608;42.600;23.398;2023-05-31T12:24:32;62.23;;;59.60;;
20896;SDS011;10608;42.600;23.398;2023-05-31T12:26:57;121.97;;;116.67;;
20896;SDS011;10608;42.600;23.398;2023-05-31T12:29:30;23.30;;;22.23;;
20896;SDS011;10608;42.600;23.398;2023-05-31T12:32:04;17.57;;;16.77;;
20896;SDS011;10608;42.600;23.398;2023-05-31T12:34:34;21.07;;;20.17;;
20896;SDS011;10608;42.600;23.398;2023-05-31T12:37:07;70.40;;;67.40;;
20896;SDS011;10608;42.600;23.398;2023-05-31T12:39:32;122.13;;;117.20;;
20896;SDS011;10608;42.600;23.398;2023-05-31T12:42:01;81.27;;;77.93;;
20896;SDS011;10608;42.600;23.398;2023-05-31T12:44:27;85.93;;;82.27;;
20896;SDS011;10608;42.600;23.398;2023-05-31T12:46:59;76.40;;;73.20;;
20896;SDS011;10608;42.600;23.398;2023-05-31T12:49:28;83.57;;;79.97;;
20896;SDS011;10608;42.600;23.398;2023-05-31T12:52:04;107.90;;;103.40;;
20896;SDS011;10608;42.600;23.398;2023-05-31T12:54:31;53.20;;;50.73;;
20896;SDS011;10608;42.600;23.398;2023-05-31T12:56:57;77.73;;;74.50;;
20896;SDS011;10608;42.600;23.398;2023-05-31T12:59:22;115.00;;;110.33;;
20896;SDS011;10608;42.600;23.398;2023-05-31T13:01:48;48.50;;;46.37;;
20896;SDS011;10608;42.600;23.398;2023-05-31T13:04:13;46.73;;;44.73;;
20896;SDS011;10608;42.600;23.398;2023-05-31T13:06:41;26.77;;;25.63;;
20896;SDS011;10608;42.600;23.398;2023-05-31T13:09:07;51.07;;;48.90;;
20896;SDS011;10608;42.600;23.398;2023-05-31T13:11:33;68.83;;;65.97;;
20896;SDS011;10608;42.600;23.398;2023-05-31T13:13:59;78.97;;;75.50;;
20896;SDS011;10608;42.600;23.398;2023-05-31T13:16:24;109.60;;;105.13;;
20896;SDS011;10608;42.600;23.398;2023-05-31T13:18:49;49.87;;;47.63;;
20896;SDS011;10608;42.600;23.398;2023-05-31T13:21:14;93.53;;;89.70;;
20896;SDS011;10608;42.600;23.398;2023-05-31T13:23:40;80.10;;;76.83;;
20896;SDS011;10608;42.600;23.398;2023-05-31T13:26:05;87.47;;;83.90;;
20896;SDS011;10608;42.600;23.398;2023-05-31T13:28:31;134.40;;;129.03;;
20896;SDS011;10608;42.600;23.398;2023-05-31T13:30:56;135.90;;;130.53;;
20896;SDS011;10608;42.600;23.398;2023-05-31T13:33:21;160.57;;;154.17;;
20896;SDS011;10608;42.600;23.398;2023-05-31T13:35:47;169.00;;;162.20;;
20896;SDS011;10608;42.600;23.398;2023-05-31T13:38:12;152.50;;;146.37;;
20896;SDS011;10608;42.600;23.398;2023-05-31T13:40:39;151.50;;;145.47;;
20896;SDS011;10608;42.600;23.398;2023-05-31T13:43:04;136.40;;;130.77;;
20896;SDS011;10608;42.600;23.398;2023-05-31T13:45:29;130.43;;;125.17;;
20896;SDS011;10608;42.600;23.398;2023-05-31T13:47:55;126.17;;;120.97;;
20896;SDS011;10608;42.600;23.398;2023-05-31T13:50:20;122.90;;;117.83;;
20896;SDS011;10608;42.600;23.398;2023-05-31T13:52:46;132.00;;;126.67;;
20896;SDS011;10608;42.600;23.398;2023-05-31T13:55:11;29.43;;;28.03;;
20896;SDS011;10608;42.600;23.398;2023-05-31T13:57:36;20.10;;;19.20;;
20896;SDS011;10608;42.600;23.398;2023-05-31T14:00:02;28.47;;;27.27;;
20896;SDS011;10608;42.600;23.398;2023-05-31T14:02:29;32.03;;;30.67;;
20896;SDS011;10608;42.600;23.398;2023-05-31T14:04:57;26.47;;;25.30;;
20896;SDS011;10608;42.600;23.398;2023-05-31T14:07:22;26.13;;;24.93;;
20896;SDS011;10608;42.600;23.398;2023-05-31T14:09:47;28.40;;;27.07;;
20896;SDS011;10608;42.600;23.398;2023-05-31T14:12:12;40.37;;;38.67;;
20896;SDS011;10608;42.600;23.398;2023-05-31T14:14:38;24.80;;;23.70;;
20896;SDS011;10608;42.600;23.398;2023-05-31T14:17:04;22.17;;;21.17;;
20896;SDS011;10608;42.600;23.398;2023-05-31T14:19:29;33.50;;;32.10;;
20896;SDS011;10608;42.600;23.398;2023-05-31T14:21:54;45.10;;;43.17;;
20896;SDS011;10608;42.600;23.398;2023-05-31T14:24:20;42.10;;;39.70;;
20896;SDS011;10608;42.600;23.398;2023-05-31T14:26:45;38.30;;;36.63;;
20896;SDS011;10608;42.600;23.398;2023-05-31T14:29:11;33.53;;;32.03;;
20896;SDS011;10608;42.600;23.398;2023-05-31T14:31:36;33.77;;;32.27;;
20896;SDS011;10608;42.600;23.398;2023-05-31T14:34:02;34.07;;;32.67;;
20896;SDS011;10608;42.600;23.398;2023-05-31T14:36:28;32.43;;;30.87;;
20896;SDS011;10608;42.600;23.398;2023-05-31T14:38:53;33.67;;;32.03;;